CheckWX is a tool to help pilots better visualize weather data.  It is not intended as a substitute for an official pre-flight weather briefing.

20:46:05 UTC

KMXO METAR
Monticello Regional Airport
Monticello, Iowa, USA
Current

31 mins ago

KMXO 232015Z AUTO 06006G12KT 10SM CLR 17/05 A3004 RMK AO2
Observed
Apr-23 @ 20:15 UTC
Wind
  • 060° at 6 KTS
  • Gusting to 12 KTS
Visibility
10 SM
Flight Rules
VFR
Cloud Levels
  • Clear skies
Temperature
17°C / 63°F
Dewpoint
C / 41°F
Humidity
45%
Altimeter
30.04" Hg
Pressure
1017.32 hPa
Previous

51 mins ago

KMXO 231955Z AUTO VRB06G13KT 10SM CLR 17/06 A3005 RMK AO2
Observed
Apr-23 @ 19:55 UTC
Wind
  • Variable at 6 KTS
  • Gusting to 13 KTS
Visibility
10 SM
Flight Rules
VFR
Cloud Levels
  • Clear skies
Temperature
17°C / 63°F
Dewpoint
C / 43°F
Humidity
49%
Altimeter
30.05" Hg
Pressure
1017.62 hPa
Previous

1 hour ago

KMXO 231935Z AUTO 05007KT 020V080 10SM CLR 17/06 A3006 RMK AO2
Observed
Apr-23 @ 19:35 UTC
Wind
  • 050° at 7 KTS
Visibility
10 SM
Flight Rules
VFR
Cloud Levels
  • Clear skies
Temperature
17°C / 63°F
Dewpoint
C / 43°F
Humidity
49%
Altimeter
30.06" Hg
Pressure
1017.92 hPa